Time;durP1;ratioP1;P1;durP2;ratioP2;P2;SDS_P1;SDS_P2;PMS_P1;PMS_P2;Temp;Humidity;BMP_temperature;BMP_pressure;BME280_temperature;BME280_humidity;BME280_pressure;Samples;Min_cycle;Max_cycle;Signal;HPM_P1;HPM_P2
2021/04/24 00:00:28;;;;;;;22.80;17.10;;;;;;;;;;5070456;28;20062;-73
2021/04/24 00:02:55;;;;;;;22.25;16.65;;;;;;;;;;5062514;28;20053;-72
2021/04/24 00:05:25;;;;;;;22.97;16.93;;;;;;;;;;5050169;28;20045;-72
2021/04/24 00:07:56;;;;;;;21.63;15.75;;;;;;;;;;5070860;28;20089;-73
2021/04/24 00:10:22;;;;;;;25.58;16.60;;;;;;;;;;5071303;28;20100;-72
2021/04/24 00:12:48;;;;;;;20.80;15.25;;;;;;;;;;5054939;28;20069;-73
2021/04/24 00:15:15;;;;;;;24.88;17.55;;;;;;;;;;5051180;28;20067;-72
2021/04/24 00:17:41;;;;;;;26.70;18.60;;;;;;;;;;5051192;28;20067;-73
2021/04/24 00:20:08;;;;;;;27.73;17.90;;;;;;;;;;5068705;28;20386;-72
2021/04/24 00:22:34;;;;;;;24.70;17.65;;;;;;;;;;5070237;28;20068;-73
2021/04/24 00:25:00;;;;;;;24.75;18.10;;;;;;;;;;5070741;28;20090;-69
2021/04/24 00:27:26;;;;;;;23.77;17.20;;;;;;;;;;5070653;28;20025;-73
2021/04/24 00:29:52;;;;;;;23.67;17.33;;;;;;;;;;5071114;28;20104;-72
2021/04/24 00:32:18;;;;;;;25.05;16.55;;;;;;;;;;5070685;28;20119;-72
2021/04/24 00:34:44;;;;;;;22.52;16.95;;;;;;;;;;5066235;28;20641;-72
2021/04/24 00:37:10;;;;;;;21.55;16.27;;;;;;;;;;5071014;28;20534;-72
2021/04/24 00:39:36;;;;;;;24.17;16.13;;;;;;;;;;5070254;28;20029;-73
2021/04/24 00:42:02;;;;;;;20.65;15.82;;;;;;;;;;5068952;28;20031;-72
2021/04/24 00:44:28;;;;;;;24.67;16.60;;;;;;;;;;5070292;28;20043;-73
2021/04/24 00:46:54;;;;;;;20.08;15.95;;;;;;;;;;5070915;28;20028;-73
2021/04/24 00:49:20;;;;;;;22.40;16.17;;;;;;;;;;5067578;28;20024;-75
2021/04/24 00:51:46;;;;;;;22.95;16.00;;;;;;;;;;5069805;28;20135;-73
2021/04/24 00:54:12;;;;;;;20.17;15.05;;;;;;;;;;5070311;28;20041;-72
2021/04/24 00:56:38;;;;;;;22.00;15.38;;;;;;;;;;5070611;28;20024;-72
2021/04/24 00:59:04;;;;;;;23.73;16.08;;;;;;;;;;5070584;28;20021;-73
2021/04/24 01:01:30;;;;;;;20.65;16.13;;;;;;;;;;5053419;28;20037;-72
2021/04/24 01:03:56;;;;;;;20.40;14.65;;;;;;;;;;5048856;28;20102;-72
2021/04/24 01:06:22;;;;;;;23.60;15.60;;;;;;;;;;5067090;28;20052;-73
2021/04/24 01:08:48;;;;;;;22.70;15.88;;;;;;;;;;5070430;28;20021;-72
2021/04/24 01:11:14;;;;;;;21.55;15.93;;;;;;;;;;5070346;28;20432;-72
2021/04/24 01:13:40;;;;;;;20.80;16.05;;;;;;;;;;5055125;28;20040;-73
2021/04/24 01:16:06;;;;;;;20.40;16.65;;;;;;;;;;5068944;28;20048;-72
2021/04/24 01:18:32;;;;;;;20.92;16.27;;;;;;;;;;5069797;28;20035;-72
2021/04/24 01:20:59;;;;;;;23.63;16.13;;;;;;;;;;5067206;28;20386;-73
2021/04/24 01:23:25;;;;;;;21.15;15.40;;;;;;;;;;5049819;28;20075;-73
2021/04/24 01:25:53;;;;;;;19.77;15.98;;;;;;;;;;5050015;28;20052;-72
2021/04/24 01:28:19;;;;;;;23.75;16.10;;;;;;;;;;5055288;28;20469;-72
2021/04/24 01:30:46;;;;;;;21.73;15.77;;;;;;;;;;5069760;28;20138;-74
2021/04/24 01:33:13;;;;;;;21.45;15.98;;;;;;;;;;5068548;28;20027;-72
2021/04/24 01:35:40;;;;;;;21.23;16.08;;;;;;;;;;5069734;28;20111;-72
2021/04/24 01:38:06;;;;;;;26.02;17.30;;;;;;;;;;5070048;28;20041;-71
2021/04/24 01:40:33;;;;;;;24.60;16.13;;;;;;;;;;5070156;28;20079;-72
2021/04/24 01:42:59;;;;;;;21.20;15.95;;;;;;;;;;5068179;28;20368;-72
2021/04/24 01:45:26;;;;;;;20.02;15.93;;;;;;;;;;5070004;28;20028;-73
2021/04/24 01:47:52;;;;;;;22.88;15.63;;;;;;;;;;5067547;28;20028;-72
2021/04/24 01:50:21;;;;;;;20.05;15.82;;;;;;;;;;5049906;28;20017;-73
2021/04/24 01:52:48;;;;;;;19.90;15.35;;;;;;;;;;5065836;28;20036;-73
2021/04/24 01:55:16;;;;;;;25.27;15.93;;;;;;;;;;5069873;28;20016;-73
2021/04/24 01:57:42;;;;;;;20.52;15.57;;;;;;;;;;5052591;28;20310;-72
2021/04/24 02:00:09;;;;;;;20.67;15.50;;;;;;;;;;5051057;28;20021;-72
2021/04/24 02:02:35;;;;;;;22.00;16.35;;;;;;;;;;5069830;28;20269;-73
2021/04/24 02:05:02;;;;;;;20.10;15.73;;;;;;;;;;5061502;28;20570;-73
2021/04/24 02:07:28;;;;;;;20.13;15.38;;;;;;;;;;5051151;28;20037;-72
2021/04/24 02:09:54;;;;;;;18.38;15.35;;;;;;;;;;5049731;28;20041;-72
2021/04/24 02:12:21;;;;;;;20.05;16.50;;;;;;;;;;5049584;28;20025;-73
2021/04/24 02:14:49;;;;;;;19.98;15.85;;;;;;;;;;5049764;28;20100;-72
2021/04/24 02:17:15;;;;;;;20.20;15.55;;;;;;;;;;5049913;28;20090;-72
2021/04/24 02:19:42;;;;;;;21.37;16.33;;;;;;;;;;5064446;28;20498;-73
2021/04/24 02:22:09;;;;;;;22.65;15.48;;;;;;;;;;5068716;28;20332;-72
2021/04/24 02:24:39;;;;;;;19.42;15.25;;;;;;;;;;5069790;28;20020;-74
2021/04/24 02:27:06;;;;;;;23.63;16.23;;;;;;;;;;5069874;28;20020;-72
2021/04/24 02:29:32;;;;;;;21.98;16.42;;;;;;;;;;5070406;28;20053;-72
2021/04/24 02:31:58;;;;;;;17.85;15.75;;;;;;;;;;5073072;28;20040;-72
2021/04/24 02:34:24;;;;;;;20.88;15.88;;;;;;;;;;5071509;28;20063;-73
2021/04/24 02:36:50;;;;;;;21.55;16.15;;;;;;;;;;5072683;28;20060;-72
2021/04/24 02:39:16;;;;;;;19.30;15.93;;;;;;;;;;5073097;28;20496;-72
2021/04/24 02:41:42;;;;;;;22.55;16.52;;;;;;;;;;5069997;28;20085;-72
2021/04/24 02:44:08;;;;;;;21.98;16.35;;;;;;;;;;5052965;28;20495;-71
2021/04/24 02:46:34;;;;;;;19.23;16.55;;;;;;;;;;5053855;28;20063;-73
2021/04/24 02:49:00;;;;;;;20.23;16.15;;;;;;;;;;5057829;28;20025;-72
2021/04/24 02:51:26;;;;;;;21.38;16.45;;;;;;;;;;5072486;28;20033;-72
2021/04/24 02:53:52;;;;;;;19.27;15.45;;;;;;;;;;5072884;28;20105;-72
2021/04/24 02:56:18;;;;;;;19.95;16.05;;;;;;;;;;5071633;28;20033;-72
2021/04/24 02:58:44;;;;;;;19.45;16.52;;;;;;;;;;5073063;28;20024;-73
2021/04/24 03:01:10;;;;;;;20.42;16.10;;;;;;;;;;5072018;28;20107;-71
2021/04/24 03:03:36;;;;;;;21.60;16.35;;;;;;;;;;5054413;28;20044;-71
2021/04/24 03:06:02;;;;;;;23.55;16.38;;;;;;;;;;5052373;28;20107;-72
2021/04/24 03:08:28;;;;;;;22.77;17.40;;;;;;;;;;5067984;28;20037;-72
2021/04/24 03:10:56;;;;;;;22.33;17.02;;;;;;;;;;5071450;28;20441;-73
2021/04/24 03:13:22;;;;;;;25.85;17.02;;;;;;;;;;5055582;28;20082;-73
2021/04/24 03:15:48;;;;;;;20.20;16.15;;;;;;;;;;5052157;28;20033;-72
2021/04/24 03:18:14;;;;;;;24.55;16.55;;;;;;;;;;5052594;28;20031;-72
2021/04/24 03:20:40;;;;;;;21.67;16.50;;;;;;;;;;5052205;28;20025;-72
2021/04/24 03:23:07;;;;;;;22.15;15.65;;;;;;;;;;5065183;28;20040;-73
2021/04/24 03:25:33;;;;;;;19.27;15.77;;;;;;;;;;5071432;28;20047;-73
2021/04/24 03:27:59;;;;;;;20.02;15.88;;;;;;;;;;5071865;28;20071;-73
2021/04/24 03:30:25;;;;;;;22.52;16.60;;;;;;;;;;5072099;28;20104;-72
2021/04/24 03:32:51;;;;;;;24.27;16.58;;;;;;;;;;5060685;28;20052;-72
2021/04/24 03:35:17;;;;;;;21.83;16.73;;;;;;;;;;5051737;28;20131;-73
2021/04/24 03:37:43;;;;;;;23.25;16.77;;;;;;;;;;5054237;28;20024;-72
2021/04/24 03:40:09;;;;;;;23.25;16.95;;;;;;;;;;5070899;28;20029;-72
2021/04/24 03:42:35;;;;;;;21.52;16.60;;;;;;;;;;5060146;28;20107;-73
2021/04/24 03:45:02;;;;;;;23.92;17.67;;;;;;;;;;5052005;28;20067;-73
2021/04/24 03:47:28;;;;;;;18.65;16.55;;;;;;;;;;5051310;28;20025;-71
2021/04/24 03:49:54;;;;;;;22.45;16.55;;;;;;;;;;5071795;28;20378;-73
2021/04/24 03:52:20;;;;;;;21.33;16.80;;;;;;;;;;5061868;28;20162;-73
2021/04/24 03:54:46;;;;;;;22.05;16.60;;;;;;;;;;5051601;28;20162;-72
2021/04/24 03:57:12;;;;;;;21.50;16.83;;;;;;;;;;5051430;28;20096;-73
2021/04/24 03:59:38;;;;;;;20.80;16.92;;;;;;;;;;5051229;28;20485;-74
2021/04/24 04:02:04;;;;;;;22.15;17.77;;;;;;;;;;5057062;28;20031;-72
2021/04/24 04:04:30;;;;;;;23.52;17.35;;;;;;;;;;5069881;28;20138;-72
2021/04/24 04:06:56;;;;;;;22.95;17.67;;;;;;;;;;5071525;28;20378;-73
2021/04/24 04:09:22;;;;;;;22.25;18.10;;;;;;;;;;5071291;28;20056;-73
2021/04/24 04:11:48;;;;;;;21.42;17.55;;;;;;;;;;5065221;28;20036;-73
2021/04/24 04:14:13;;;;;;;22.88;18.20;;;;;;;;;;5051212;28;20035;-73
2021/04/24 04:16:39;;;;;;;20.98;17.15;;;;;;;;;;5051139;28;20039;-74
2021/04/24 04:19:05;;;;;;;24.17;17.02;;;;;;;;;;5051351;28;20063;-72
2021/04/24 04:21:32;;;;;;;22.92;17.60;;;;;;;;;;5052752;28;20048;-72
2021/04/24 04:23:58;;;;;;;22.17;17.58;;;;;;;;;;5071228;28;20031;-73
2021/04/24 04:26:24;;;;;;;20.10;16.75;;;;;;;;;;5068752;28;20040;-73
2021/04/24 04:28:50;;;;;;;21.38;16.90;;;;;;;;;;5053274;28;20132;-72
2021/04/24 04:31:16;;;;;;;25.30;17.65;;;;;;;;;;5049304;28;20029;-73
2021/04/24 04:33:42;;;;;;;21.60;16.75;;;;;;;;;;5069445;28;20387;-73
2021/04/24 04:36:08;;;;;;;20.63;16.58;;;;;;;;;;5070508;28;20039;-73
2021/04/24 04:38:34;;;;;;;24.23;18.05;;;;;;;;;;5070847;28;20052;-73
2021/04/24 04:41:00;;;;;;;23.60;17.48;;;;;;;;;;5070103;28;20063;-73
2021/04/24 04:43:26;;;;;;;26.15;19.25;;;;;;;;;;5053037;28;20729;-74
2021/04/24 04:45:52;;;;;;;22.67;17.58;;;;;;;;;;5049370;28;20040;-73
2021/04/24 04:48:18;;;;;;;23.45;18.13;;;;;;;;;;5050965;28;20112;-72
2021/04/24 04:50:44;;;;;;;24.83;19.33;;;;;;;;;;5050382;28;20057;-73
2021/04/24 04:53:10;;;;;;;26.35;18.98;;;;;;;;;;5064760;28;20074;-73
2021/04/24 04:55:36;;;;;;;24.08;18.45;;;;;;;;;;5069409;28;20020;-72
2021/04/24 04:58:03;;;;;;;27.55;18.95;;;;;;;;;;5069542;28;20044;-73
2021/04/24 05:00:29;;;;;;;23.60;19.20;;;;;;;;;;5069720;28;20032;-72
2021/04/24 05:02:55;;;;;;;27.58;19.05;;;;;;;;;;5059487;28;20086;-73
2021/04/24 05:05:21;;;;;;;22.35;18.45;;;;;;;;;;5063620;28;20063;-72
2021/04/24 05:07:49;;;;;;;27.42;19.20;;;;;;;;;;5060519;28;20048;-72
2021/04/24 05:10:15;;;;;;;21.52;18.25;;;;;;;;;;5053320;28;20450;-73
2021/04/24 05:12:41;;;;;;;24.63;17.50;;;;;;;;;;5068536;28;20435;-72
2021/04/24 05:15:07;;;;;;;22.80;17.63;;;;;;;;;;5069704;28;20032;-73
2021/04/24 05:17:33;;;;;;;22.30;18.73;;;;;;;;;;5070071;28;20039;-73
2021/04/24 05:19:59;;;;;;;23.70;18.75;;;;;;;;;;5067928;28;20021;-73
2021/04/24 05:22:25;;;;;;;23.42;18.60;;;;;;;;;;5050811;28;20114;-73
2021/04/24 05:24:51;;;;;;;24.13;19.58;;;;;;;;;;5053620;28;20029;-73
2021/04/24 05:27:17;;;;;;;25.90;18.92;;;;;;;;;;5050122;28;20044;-72
2021/04/24 05:29:43;;;;;;;26.08;19.77;;;;;;;;;;5050054;28;20033;-73
2021/04/24 05:32:09;;;;;;;22.52;18.70;;;;;;;;;;5067585;28;20475;-74
2021/04/24 05:34:35;;;;;;;23.23;18.85;;;;;;;;;;5070094;28;20024;-72
2021/04/24 05:37:01;;;;;;;24.58;19.38;;;;;;;;;;5069027;28;20039;-73
2021/04/24 05:39:27;;;;;;;24.83;18.88;;;;;;;;;;5069708;28;20501;-73
2021/04/24 05:41:53;;;;;;;23.00;18.42;;;;;;;;;;5059895;28;20025;-73
2021/04/24 05:44:19;;;;;;;26.98;19.58;;;;;;;;;;5066707;28;20031;-73
2021/04/24 05:46:46;;;;;;;27.13;19.70;;;;;;;;;;5077243;28;20037;-73
2021/04/24 05:49:12;;;;;;;25.52;19.55;;;;;;;;;;5056351;28;20425;-72
2021/04/24 05:51:38;;;;;;;25.50;19.48;;;;;;;;;;5064108;28;20073;-72
2021/04/24 05:54:04;;;;;;;24.40;19.58;;;;;;;;;;5070189;28;20051;-73
2021/04/24 05:56:30;;;;;;;22.13;19.10;;;;;;;;;;5069363;28;20067;-73
2021/04/24 05:58:56;;;;;;;24.55;19.27;;;;;;;;;;5069886;28;20052;-72
2021/04/24 06:01:22;;;;;;;25.92;19.65;;;;;;;;;;5069620;28;20095;-72
2021/04/24 06:03:48;;;;;;;24.15;18.38;;;;;;;;;;5070990;28;20041;-72
2021/04/24 06:06:14;;;;;;;22.35;19.55;;;;;;;;;;5060652;28;20501;-72
2021/04/24 06:08:40;;;;;;;22.58;19.17;;;;;;;;;;5053577;28;20017;-72
2021/04/24 06:11:06;;;;;;;23.52;19.52;;;;;;;;;;5063348;28;20437;-73
2021/04/24 06:13:32;;;;;;;21.70;18.17;;;;;;;;;;5053131;28;20029;-73
2021/04/24 06:15:58;;;;;;;23.83;19.60;;;;;;;;;;5053598;28;20071;-72
2021/04/24 06:18:24;;;;;;;23.55;18.77;;;;;;;;;;5058367;28;20093;-73
2021/04/24 06:20:50;;;;;;;22.45;19.20;;;;;;;;;;5062797;28;20040;-73
2021/04/24 06:23:16;;;;;;;28.08;20.48;;;;;;;;;;5064144;28;20032;-72
2021/04/24 06:25:44;;;;;;;24.98;20.10;;;;;;;;;;5060098;28;20028;-72
2021/04/24 06:28:10;;;;;;;;;;;;;;;;;;5065650;28;20091;-73
2021/04/24 06:30:36;;;;;;;23.88;19.13;;;;;;;;;;5058969;28;20358;-72
2021/04/24 06:33:02;;;;;;;25.40;18.67;;;;;;;;;;5052662;28;20589;-71
2021/04/24 06:35:28;;;;;;;26.02;18.98;;;;;;;;;;5052640;28;20025;-72
2021/04/24 06:37:58;;;;;;;25.25;17.70;;;;;;;;;;5052027;28;20071;-73
2021/04/24 06:40:24;;;;;;;22.10;18.15;;;;;;;;;;5061921;28;20092;-72
2021/04/24 06:42:50;;;;;;;26.42;19.85;;;;;;;;;;5062248;28;20634;-72
2021/04/24 06:45:17;;;;;;;24.55;18.58;;;;;;;;;;5052083;28;20502;-73
2021/04/24 06:47:43;;;;;;;23.63;20.00;;;;;;;;;;5057069;28;20012;-73
2021/04/24 06:50:10;;;;;;;26.70;19.13;;;;;;;;;;5052760;28;20083;-73
2021/04/24 06:52:36;;;;;;;24.25;19.88;;;;;;;;;;5074625;28;20044;-73
2021/04/24 06:55:03;;;;;;;27.15;18.83;;;;;;;;;;5075776;28;20028;-73
2021/04/24 06:57:29;;;;;;;27.33;20.35;;;;;;;;;;5056838;28;20031;-76
2021/04/24 06:59:56;;;;;;;25.15;19.55;;;;;;;;;;5054769;28;20025;-76
2021/04/24 07:02:23;;;;;;;23.92;19.83;;;;;;;;;;5058343;28;20048;-73
2021/04/24 07:04:49;;;;;;;27.05;20.58;;;;;;;;;;5063368;28;20479;-72
2021/04/24 07:07:15;;;;;;;21.23;18.88;;;;;;;;;;5065641;28;20031;-73
2021/04/24 07:09:41;;;;;;;20.95;18.20;;;;;;;;;;5058954;28;20040;-72
2021/04/24 07:12:10;;;;;;;23.17;18.42;;;;;;;;;;5059989;28;20104;-74
2021/04/24 07:14:38;;;;;;;22.73;18.50;;;;;;;;;;5051125;28;20040;-74
2021/04/24 07:17:04;;;;;;;22.67;18.13;;;;;;;;;;5062217;28;20071;-72
2021/04/24 07:19:30;;;;;;;24.10;18.70;;;;;;;;;;5065030;28;20029;-72
2021/04/24 07:21:56;;;;;;;23.20;18.40;;;;;;;;;;5053990;28;20031;-73
2021/04/24 07:24:22;;;;;;;21.33;18.08;;;;;;;;;;5068588;28;20032;-72
2021/04/24 07:26:48;;;;;;;26.40;18.95;;;;;;;;;;5055971;28;20029;-72
2021/04/24 07:29:14;;;;;;;26.42;17.80;;;;;;;;;;5053446;28;20028;-72
2021/04/24 07:31:42;;;;;;;22.10;18.13;;;;;;;;;;5059467;28;20123;-72
2021/04/24 07:34:08;;;;;;;;;;;;;;;;;;5058642;28;20131;-72
2021/04/24 07:36:34;;;;;;;23.38;17.35;;;;;;;;;;5051210;28;19908;-72
2021/04/24 07:39:00;;;;;;;23.88;18.05;;;;;;;;;;5052032;28;20033;-72
2021/04/24 07:41:26;;;;;;;21.83;18.52;;;;;;;;;;5051003;28;20585;-72
2021/04/24 07:43:52;;;;;;;24.40;18.80;;;;;;;;;;5071133;28;20033;-71
2021/04/24 07:48:49;;;;;;;10.40;4.18;;;;;;;;;;5108659;27;20334;-76
2021/04/24 07:51:15;;;;;;;19.95;4.60;;;;;;;;;;5106585;28;20068;-74
2021/04/24 07:53:42;;;;;;;6.68;3.88;;;;;;;;;;5108989;28;20043;-73
2021/04/24 07:56:08;;;;;;;11.23;4.10;;;;;;;;;;5107133;28;20042;-75
2021/04/24 07:58:34;;;;;;;15.57;4.65;;;;;;;;;;5108903;28;20091;-73
2021/04/24 08:01:01;;;;;;;23.45;6.47;;;;;;;;;;5106628;28;20024;-77
2021/04/24 08:03:27;;;;;;;19.20;6.47;;;;;;;;;;5108868;28;20036;-76
2021/04/24 08:05:53;;;;;;;29.13;6.32;;;;;;;;;;5107261;27;20044;-79
2021/04/24 08:08:19;;;;;;;26.63;5.47;;;;;;;;;;5106588;28;20050;-75
2021/04/24 08:10:45;;;;;;;30.57;5.40;;;;;;;;;;5107714;28;20028;-74
2021/04/24 08:13:11;;;;;;;25.55;4.90;;;;;;;;;;5107584;28;20032;-76
2021/04/24 08:15:37;;;;;;;26.67;4.68;;;;;;;;;;5108835;28;20506;-73
2021/04/24 08:18:04;;;;;;;12.82;3.97;;;;;;;;;;5108479;28;20138;-77
2021/04/24 08:21:47;;;;;;;34.25;4.45;;;;;;;;;;5108884;27;20864;-75
2021/04/24 08:24:14;;;;;;;23.47;4.27;;;;;;;;;;5109654;28;20028;-74
2021/04/24 08:26:40;;;;;;;299.38;16.75;;;;;;;;;;5108961;27;20474;-71
2021/04/24 08:29:07;;;;;;;47.85;6.10;;;;;;;;;;5108058;28;20038;-74
2021/04/24 08:31:33;;;;;;;;;;;;;;;;;;5108790;28;20435;-71
2021/04/24 08:33:59;;;;;;;39.97;6.93;;;;;;;;;;5107549;28;19953;-74
2021/04/24 08:36:25;;;;;;;38.60;6.88;;;;;;;;;;5107560;28;20016;-75
2021/04/24 08:38:51;;;;;;;30.97;6.43;;;;;;;;;;5108874;27;20118;-76
2021/04/24 08:41:18;;;;;;;29.60;6.03;;;;;;;;;;5107896;28;20478;-75
2021/04/24 08:43:45;;;;;;;26.02;6.35;;;;;;;;;;5109958;28;20039;-77
2021/04/24 08:46:15;;;;;;;26.67;6.20;;;;;;;;;;5108570;28;20024;-76
2021/04/24 08:48:41;;;;;;;25.15;5.80;;;;;;;;;;5108602;27;20027;-75
2021/04/24 08:51:07;;;;;;;19.70;5.53;;;;;;;;;;5106601;28;20890;-74
2021/04/24 08:53:33;;;;;;;24.02;5.82;;;;;;;;;;5108799;28;20362;-72
2021/04/24 08:56:00;;;;;;;20.75;5.93;;;;;;;;;;5108653;28;20154;-72
2021/04/24 08:58:26;;;;;;;19.55;5.40;;;;;;;;;;5107329;28;20043;-74
2021/04/24 09:00:53;;;;;;;21.50;5.28;;;;;;;;;;5108333;28;20040;-73
2021/04/24 09:03:21;;;;;;;22.27;5.70;;;;;;;;;;5108517;28;20122;-72
2021/04/24 09:05:51;;;;;;;19.70;5.25;;;;;;;;;;5108337;28;20030;-75
2021/04/24 09:10:43;;;;;;;19.67;16.52;;;;;;;;;;5098092;27;1432911;-75
2021/04/24 09:13:10;;;;;;;19.50;16.35;;;;;;;;;;5119137;28;20027;-75
2021/04/24 09:15:36;;;;;;;20.63;17.55;;;;;;;;;;5122349;27;20126;-75
2021/04/24 09:18:07;;;;;;;19.92;17.20;;;;;;;;;;5123382;27;20124;-73
2021/04/24 09:20:53;;;;;;;20.40;17.00;;;;;;;;;;5109882;27;20639;-74
2021/04/24 09:23:30;;;;;;;23.45;17.95;;;;;;;;;;5100707;28;20019;-74
2021/04/24 09:25:57;;;;;;;;;;;;;;;;;;5126914;28;20081;-73
2021/04/24 09:28:27;;;;;;;23.45;17.92;;;;;;;;;;5123435;28;19911;-72
2021/04/24 09:30:54;;;;;;;19.15;16.95;;;;;;;;;;5118709;27;20534;-73
2021/04/24 09:33:20;;;;;;;21.55;17.30;;;;;;;;;;5124165;27;20084;-72
2021/04/24 09:35:54;;;;;;;21.42;17.33;;;;;;;;;;5123894;28;20033;-75
2021/04/24 09:38:25;;;;;;;20.65;17.95;;;;;;;;;;5128404;28;20031;-73
2021/04/24 09:41:10;;;;;;;21.67;17.35;;;;;;;;;;5128082;27;20488;-73
2021/04/24 09:44:24;;;;;;;21.80;17.73;;;;;;;;;;5127964;28;20099;-74
2021/04/24 09:46:49;;;;;;;22.17;17.67;;;;;;;;;;5121278;28;20564;-72
2021/04/24 09:49:16;;;;;;;21.13;16.55;;;;;;;;;;5126677;27;20031;-74
2021/04/24 09:51:49;;;;;;;22.45;17.38;;;;;;;;;;5126866;27;20047;-75
2021/04/24 09:54:16;;;;;;;21.05;16.95;;;;;;;;;;5116903;28;20535;-73
2021/04/24 09:56:43;;;;;;;20.75;17.10;;;;;;;;;;5123016;27;20418;-73
2021/04/24 09:59:09;;;;;;;20.80;17.40;;;;;;;;;;5127007;27;20020;-74
2021/04/24 10:01:41;;;;;;;20.65;17.25;;;;;;;;;;5109076;27;20516;-76
2021/04/24 10:04:12;;;;;;;20.33;17.55;;;;;;;;;;5119416;28;20104;-74
2021/04/24 10:06:47;;;;;;;19.92;16.98;;;;;;;;;;5127386;27;20477;-73
2021/04/24 10:09:24;;;;;;;19.40;16.33;;;;;;;;;;5127428;28;20059;-75
2021/04/24 10:12:02;;;;;;;19.42;17.45;;;;;;;;;;5108684;27;20028;-75
2021/04/24 10:14:29;;;;;;;18.67;16.50;;;;;;;;;;5127612;28;20031;-73
2021/04/24 10:16:56;;;;;;;19.27;17.17;;;;;;;;;;5125437;27;20027;-74
2021/04/24 10:19:22;;;;;;;;;;;;;;;;;;5119958;28;20031;-73
2021/04/24 10:21:48;;;;;;;17.58;15.18;;;;;;;;;;5111762;27;20374;-74
2021/04/24 10:24:14;;;;;;;19.27;16.08;;;;;;;;;;5088222;28;20543;-74
2021/04/24 10:26:42;;;;;;;16.63;14.87;;;;;;;;;;5098732;28;20038;-74
2021/04/24 10:29:08;;;;;;;;;;;;;;;;;;5113829;28;20435;-75
2021/04/24 10:31:35;;;;;;;18.90;14.30;;;;;;;;;;5117350;27;19908;-74
2021/04/24 10:34:04;;;;;;;16.30;14.57;;;;;;;;;;5133851;27;20480;-77
2021/04/24 10:36:30;;;;;;;20.83;15.65;;;;;;;;;;5116917;27;20031;-74
2021/04/24 10:38:57;;;;;;;18.88;15.75;;;;;;;;;;5113304;28;20384;-74
2021/04/24 10:41:34;;;;;;;17.88;15.27;;;;;;;;;;5093303;28;20023;-75
2021/04/24 10:44:05;;;;;;;17.50;15.40;;;;;;;;;;5111942;28;20122;-74
2021/04/24 10:46:33;;;;;;;18.05;15.60;;;;;;;;;;5094908;28;20027;-73
2021/04/24 10:49:18;;;;;;;19.27;15.05;;;;;;;;;;5112259;28;20044;-73
2021/04/24 10:51:55;;;;;;;20.92;14.13;;;;;;;;;;5099514;28;20019;-73
2021/04/24 10:54:21;;;;;;;15.70;13.85;;;;;;;;;;5111815;28;20035;-77
2021/04/24 10:56:47;;;;;;;16.47;14.27;;;;;;;;;;5100313;28;20023;-72
2021/04/24 10:59:19;;;;;;;15.27;13.73;;;;;;;;;;5099686;27;20275;-73
2021/04/24 11:02:03;;;;;;;16.83;14.35;;;;;;;;;;5118398;27;20039;-74
2021/04/24 11:04:49;;;;;;;16.65;13.35;;;;;;;;;;5101906;27;20035;-74
2021/04/24 11:07:19;;;;;;;16.27;13.55;;;;;;;;;;5112912;28;20023;-73
2021/04/24 11:09:46;;;;;;;17.67;14.80;;;;;;;;;;5099359;28;20052;-75
2021/04/24 11:12:13;;;;;;;16.38;13.05;;;;;;;;;;5093606;28;20382;-79
2021/04/24 11:14:40;;;;;;;16.92;14.07;;;;;;;;;;5107593;28;20028;-77
2021/04/24 11:17:08;;;;;;;16.63;13.30;;;;;;;;;;5129359;27;20070;-78
2021/04/24 11:19:45;;;;;;;18.90;13.75;;;;;;;;;;5113671;27;20031;-77
2021/04/24 11:22:31;;;;;;;16.83;14.00;;;;;;;;;;5132686;27;20064;-77
2021/04/24 11:25:26;;;;;;;17.52;12.98;;;;;;;;;;5132875;27;20025;-77
2021/04/24 11:28:06;;;;;;;18.33;13.90;;;;;;;;;;5100746;27;20050;-77
2021/04/24 11:30:50;;;;;;;14.57;12.55;;;;;;;;;;5127998;27;20039;-76
2021/04/24 11:33:36;;;;;;;18.38;13.55;;;;;;;;;;5108257;28;20031;-77
2021/04/24 11:38:52;;;;;;;16.92;13.82;;;;;;;;;;5112838;28;20035;-76
2021/04/24 11:41:38;;;;;;;16.58;13.45;;;;;;;;;;5112087;28;20028;-77
2021/04/24 11:44:25;;;;;;;15.30;13.65;;;;;;;;;;5094817;28;20036;-76
2021/04/24 11:46:52;;;;;;;18.38;13.32;;;;;;;;;;5111227;28;20400;-77
2021/04/24 11:49:19;;;;;;;17.55;12.75;;;;;;;;;;5112292;28;20118;-77
2021/04/24 11:51:54;;;;;;;16.88;12.35;;;;;;;;;;5112138;28;20026;-77
2021/04/24 11:54:27;;;;;;;19.42;12.93;;;;;;;;;;5111965;28;20097;-78
2021/04/24 11:56:55;;;;;;;15.18;13.10;;;;;;;;;;5111416;28;20574;-77
2021/04/24 11:59:22;;;;;;;18.90;14.10;;;;;;;;;;5111642;28;20085;-77
2021/04/24 12:01:48;;;;;;;14.75;13.20;;;;;;;;;;5111734;28;20028;-76
2021/04/24 12:04:27;;;;;;;14.82;13.32;;;;;;;;;;5102466;28;20030;-78
2021/04/24 12:07:01;;;;;;;18.65;12.43;;;;;;;;;;5091727;28;20035;-78
2021/04/24 12:09:27;;;;;;;17.10;12.70;;;;;;;;;;5102821;28;20444;-77
2021/04/24 12:12:00;;;;;;;19.65;13.80;;;;;;;;;;5111565;28;20074;-78
2021/04/24 12:14:28;;;;;;;16.33;13.73;;;;;;;;;;5111433;28;20449;-77
2021/04/24 12:16:53;;;;;;;;;;;;;;;;;;5112164;28;20038;-75
2021/04/24 12:19:49;;;;;;;16.27;14.33;;;;;;;;;;5110701;28;19907;-78
2021/04/24 12:22:19;;;;;;;15.90;12.82;;;;;;;;;;5089852;28;20042;-77
2021/04/24 12:24:53;;;;;;;14.90;12.18;;;;;;;;;;5111493;28;20047;-79
2021/04/24 12:27:23;;;;;;;16.85;13.40;;;;;;;;;;5111356;28;20042;-78
2021/04/24 12:29:50;;;;;;;19.38;14.05;;;;;;;;;;5111174;28;20032;-78
2021/04/24 12:32:16;;;;;;;;;;;;;;;;;;5111643;28;20032;-75
2021/04/24 12:34:42;;;;;;;15.30;13.70;;;;;;;;;;5110701;28;19908;-78
2021/04/24 12:37:15;;;;;;;18.23;14.47;;;;;;;;;;5111115;28;20073;-77
2021/04/24 12:39:43;;;;;;;15.23;13.40;;;;;;;;;;5111072;28;20045;-79
2021/04/24 12:42:14;;;;;;;14.18;11.82;;;;;;;;;;5111060;28;20093;-77
2021/04/24 12:44:41;;;;;;;17.60;13.30;;;;;;;;;;5110961;28;20020;-77
2021/04/24 12:47:07;;;;;;;15.40;13.02;;;;;;;;;;5110829;28;20023;-78
2021/04/24 12:49:33;;;;;;;15.13;12.80;;;;;;;;;;5110842;28;20047;-79
2021/04/24 12:52:01;;;;;;;13.55;12.15;;;;;;;;;;5110789;28;20663;-78
2021/04/24 12:54:27;;;;;;;15.02;12.30;;;;;;;;;;5111354;28;20729;-78
2021/04/24 12:57:09;;;;;;;13.98;11.68;;;;;;;;;;5111056;28;20075;-79
2021/04/24 12:59:35;;;;;;;12.35;11.07;;;;;;;;;;5110561;28;20024;-77
2021/04/24 13:02:02;;;;;;;14.30;12.27;;;;;;;;;;5110512;28;20363;-79
2021/04/24 13:04:28;;;;;;;16.27;12.23;;;;;;;;;;5110478;28;20039;-77
2021/04/24 13:06:58;;;;;;;11.88;10.73;;;;;;;;;;5110827;28;20107;-78
2021/04/24 13:09:34;;;;;;;13.73;12.10;;;;;;;;;;5110093;28;20145;-77
2021/04/24 13:12:08;;;;;;;11.55;10.35;;;;;;;;;;5110668;28;20076;-78
2021/04/24 13:14:40;;;;;;;12.48;11.15;;;;;;;;;;5092450;28;20034;-79
2021/04/24 13:17:10;;;;;;;13.82;10.63;;;;;;;;;;5110899;28;20112;-78
2021/04/24 13:19:49;;;;;;;11.85;9.95;;;;;;;;;;5092504;28;20031;-78
2021/04/24 13:22:35;;;;;;;14.85;10.52;;;;;;;;;;5090350;28;20505;-80
2021/04/24 13:25:03;;;;;;;10.95;9.40;;;;;;;;;;5073386;28;20176;-79
2021/04/24 13:27:29;;;;;;;12.48;10.63;;;;;;;;;;5091139;28;20028;-77
2021/04/24 13:29:55;;;;;;;11.77;10.10;;;;;;;;;;5072182;28;20043;-78
2021/04/24 13:32:21;;;;;;;15.10;10.27;;;;;;;;;;5092465;28;20036;-79
2021/04/24 13:34:49;;;;;;;11.82;9.55;;;;;;;;;;5092352;28;20042;-78
2021/04/24 13:37:33;;;;;;;10.93;9.05;;;;;;;;;;5092036;28;20019;-80
2021/04/24 13:40:00;;;;;;;10.43;8.52;;;;;;;;;;5110724;28;20024;-81
2021/04/24 13:42:36;;;;;;;12.00;9.80;;;;;;;;;;5110272;28;20075;-78
2021/04/24 13:45:05;;;;;;;11.40;8.82;;;;;;;;;;5110485;28;20020;-78
2021/04/24 13:47:32;;;;;;;11.98;9.80;;;;;;;;;;5091705;28;20027;-79
2021/04/24 13:49:58;;;;;;;16.67;9.82;;;;;;;;;;5110569;28;20032;-77
2021/04/24 13:52:24;;;;;;;13.75;10.45;;;;;;;;;;5110482;28;20038;-78
2021/04/24 13:54:50;;;;;;;13.65;10.55;;;;;;;;;;5110287;28;20038;-75
2021/04/24 13:57:16;;;;;;;16.02;10.38;;;;;;;;;;5113354;28;20016;-77
2021/04/24 13:59:43;;;;;;;11.75;10.18;;;;;;;;;;5114456;28;20028;-77
2021/04/24 14:02:09;;;;;;;;;;;;;;;;;;5114337;28;20110;-78
2021/04/24 14:04:35;;;;;;;11.00;9.77;;;;;;;;;;5113790;28;20417;-78
2021/04/24 14:07:01;;;;;;;10.95;9.48;;;;;;;;;;5113747;28;20023;-79
2021/04/24 14:09:27;;;;;;;9.73;8.73;;;;;;;;;;5113522;28;20853;-78
2021/04/24 14:11:53;;;;;;;11.70;9.48;;;;;;;;;;5113960;28;20439;-79
2021/04/24 14:14:19;;;;;;;15.70;9.63;;;;;;;;;;5113941;28;20496;-78
2021/04/24 14:16:45;;;;;;;10.82;9.73;;;;;;;;;;5113886;28;20027;-75
2021/04/24 14:19:11;;;;;;;12.43;9.93;;;;;;;;;;5113754;28;20031;-77
2021/04/24 14:21:37;;;;;;;14.07;10.02;;;;;;;;;;5113964;28;20024;-77
2021/04/24 14:24:04;;;;;;;11.63;10.40;;;;;;;;;;5113645;28;20047;-78
2021/04/24 14:26:34;;;;;;;12.38;9.88;;;;;;;;;;5094810;28;20076;-79
2021/04/24 14:29:00;;;;;;;12.20;10.15;;;;;;;;;;5113731;28;20122;-79
2021/04/24 14:31:27;;;;;;;10.88;9.57;;;;;;;;;;5095255;28;20074;-79
2021/04/24 14:33:53;;;;;;;10.60;9.60;;;;;;;;;;5094871;28;20035;-78